Time;durP1;ratioP1;P1;durP2;ratioP2;P2;SDS_P1;SDS_P2;PMS_P1;PMS_P2;Temp;Humidity;BMP_temperature;BMP_pressure;BME280_temperature;BME280_humidity;BME280_pressure;Samples;Min_cycle;Max_cycle;Signal;HPM_P1;HPM_P2
2022/08/28 00:02:07;;;;;;;;;;;;;;;;;;6238183;22;20384;-90
2022/08/28 00:04:34;;;;;;;;;;;;;;;;;;6209064;22;20314;-90
2022/08/28 00:07:00;;;;;;;;;;;;;;;;;;6236066;22;19924;-91
2022/08/28 00:09:26;;;;;;;;;;;;;;;;;;6210289;22;19994;-90
2022/08/28 00:11:55;;;;;;;;;;;;;;;;;;6214668;22;19919;-90
2022/08/28 00:14:21;;;;;;;;;;;;;;;;;;6210814;22;20022;-90
2022/08/28 00:16:47;;;;;;;;;;;;;;;;;;6212617;22;19927;-90
2022/08/28 00:19:13;;;;;;;;;;;;;;;;;;6212541;22;20368;-91
2022/08/28 00:21:40;;;;;;;;;;;;;;;;;;6211350;22;20343;-91
2022/08/28 00:24:06;;;;;;;;;;;;;;;;;;6212838;22;20322;-91
2022/08/28 00:29:19;;;;;;;;;;;;;;;;;;6236107;22;19939;-92
2022/08/28 00:31:48;;;;;;;;;;;;;;;;;;6212577;22;19915;-92
2022/08/28 00:34:14;;;;;;;;;;;;;;;;;;6206172;23;20280;-90
2022/08/28 00:36:41;;;;;;;;;;;;;;;;;;6230951;23;19920;-90
2022/08/28 00:39:10;;;;;;;;;;;;;;;;;;6209980;23;19916;-90
2022/08/28 00:41:37;;;;;;;;;;;;;;;;;;6206438;23;19926;-90
2022/08/28 00:44:03;;;;;;;;;;;;;;;;;;6232931;23;19923;-90
2022/08/28 00:46:32;;;;;;;;;;;;;;;;;;6204577;23;20236;-90
2022/08/28 00:48:58;;;;;;;;;;;;;;;;;;6207410;23;19923;-90
2022/08/28 00:54:08;;;;;;;;;;;;;;;;;;6234550;23;19923;-91
2022/08/28 00:56:35;;;;;;;;;;;;;;;;;;6206235;23;19922;-91
2022/08/28 00:59:01;;;;;;;;;;;;;;;;;;6232787;23;19923;-91
2022/08/28 01:01:30;;;;;;;;;;;;;;;;;;6231414;23;19920;-91
2022/08/28 01:04:05;;;;;;;;;;;;;;;;;;6208848;23;19919;-91
2022/08/28 01:06:31;;;;;;;;;;;;;;;;;;6230184;23;20020;-91
2022/08/28 01:08:57;;;;;;;;;;;;;;;;;;6206187;23;20325;-90
2022/08/28 01:11:23;;;;;;;;;;;;;;;;;;6227301;23;19931;-90
2022/08/28 01:13:49;;;;;;;;;;;;;;;;;;6205847;23;19923;-90
2022/08/28 01:16:21;;;;;;;;;;;;;;;;;;6206913;23;19919;-91
2022/08/28 01:18:50;;;;;;;;;;;;;;;;;;6207438;23;19950;-91
2022/08/28 01:21:22;;;;;;;;;;;;;;;;;;6203265;23;19990;-91
2022/08/28 01:23:49;;;;;;;;;;;;;;;;;;6205658;23;20014;-90
2022/08/28 01:26:17;;;;;;;;;;;;;;;;;;6205371;23;19923;-90
2022/08/28 01:28:44;;;;;;;;;;;;;;;;;;6207023;23;19920;-91
2022/08/28 01:31:13;;;;;;;;;;;;;;;;;;6206435;23;20034;-91
2022/08/28 01:33:42;;;;;;;;;;;;;;;;;;6203830;23;19923;-90
2022/08/28 01:36:11;;;;;;;;;;;;;;;;;;6203254;23;19998;-90
2022/08/28 01:38:37;;;;;;;;;;;;;;;;;;6203423;23;19952;-91
2022/08/28 01:41:03;;;;;;;;;;;;;;;;;;6208088;23;20037;-92
2022/08/28 01:43:32;;;;;;;;;;;;;;;;;;6204478;23;19915;-91
2022/08/28 01:46:00;;;;;;;;;;;;;;;;;;6207935;23;20241;-91
2022/08/28 01:48:26;;;;;;;;;;;;;;;;;;6233380;23;19959;-91
2022/08/28 01:51:00;;;;;;;;;;;;;;;;;;6241935;23;20279;-91
2022/08/28 01:53:26;;;;;;;;;;;;;;;;;;6214183;23;19952;-91
2022/08/28 01:55:52;;;;;;;;;;;;;;;;;;6240089;23;19962;-91
2022/08/28 01:58:18;;;;;;;;;;;;;;;;;;6241427;23;20333;-92
2022/08/28 02:00:49;;;;;;;;;;;;;;;;;;6213678;23;19919;-91
2022/08/28 02:03:25;;;;;;;;;;;;;;;;;;6213737;23;20351;-91
2022/08/28 02:05:51;;;;;;;;;;;;;;;;;;6241652;23;19919;-90
2022/08/28 02:08:17;;;;;;;;;;;;;;;;;;6235923;23;19926;-91
2022/08/28 02:10:46;;;;;;;;;;;;;;;;;;6233936;23;19927;-91
2022/08/28 02:13:12;;;;;;;;;;;;;;;;;;6235950;23;19923;-90
2022/08/28 02:15:44;;;;;;;;;;;;;;;;;;6207478;23;20687;-91
2022/08/28 02:18:13;;;;;;;;;;;;;;;;;;6233881;23;19973;-91
2022/08/28 02:20:40;;;;;;;;;;;;;;;;;;6206915;23;19920;-91
2022/08/28 02:23:06;;;;;;;;;;;;;;;;;;6211465;23;20338;-91
2022/08/28 02:25:32;;;;;;;;;;;;;;;;;;6211125;23;19920;-91
2022/08/28 02:27:58;;;;;;;;;;;;;;;;;;6203977;23;20020;-90
2022/08/28 02:30:24;;;;;;;;;;;;;;;;;;6203626;23;19920;-90
2022/08/28 02:32:50;;;;;;;;;;;;;;;;;;6230881;23;19993;-91
2022/08/28 02:35:17;;;;;;;;;;;;;;;;;;6208059;23;19920;-90
2022/08/28 02:37:46;;;;;;;;;;;;;;;;;;6232681;23;19916;-91
2022/08/28 02:40:13;;;;;;;;;;;;;;;;;;6207494;23;19916;-90
2022/08/28 02:42:45;;;;;;;;;;;;;;;;;;6231217;23;20132;-90
2022/08/28 02:45:11;;;;;;;;;;;;;;;;;;6206756;23;20340;-90
2022/08/28 02:47:39;;;;;;;;;;;;;;;;;;6203078;23;19923;-91
2022/08/28 02:50:11;;;;;;;;;;;;;;;;;;6207566;23;19919;-90
2022/08/28 02:52:40;;;;;;;;;;;;;;;;;;6205561;23;19926;-90
2022/08/28 02:55:06;;;;;;;;;;;;;;;;;;6205248;23;19919;-90
2022/08/28 02:57:32;;;;;;;;;;;;;;;;;;6202836;23;20029;-90
2022/08/28 02:59:58;;;;;;;;;;;;;;;;;;6233058;23;20384;-91
2022/08/28 03:02:24;;;;;;;;;;;;;;;;;;6206050;23;19951;-90
2022/08/28 03:04:51;;;;;;;;;;;;;;;;;;6206083;23;19925;-90
2022/08/28 03:07:18;;;;;;;;;;;;;;;;;;6229556;23;19923;-91
2022/08/28 03:09:44;;;;;;;;;;;;;;;;;;6206165;23;19931;-90
2022/08/28 03:12:12;;;;;;;;;;;;;;;;;;6207840;23;19923;-90
2022/08/28 03:14:38;;;;;;;;;;;;;;;;;;6207245;23;20804;-91
2022/08/28 03:17:04;;;;;;;;;;;;;;;;;;6210313;23;19927;-90
2022/08/28 03:19:33;;;;;;;;;;;;;;;;;;6208116;23;19919;-90
2022/08/28 03:21:59;;;;;;;;;;;;;;;;;;6209439;23;19977;-90
2022/08/28 03:24:25;;;;;;;;;;;;;;;;;;6207234;23;19920;-91
2022/08/28 03:26:55;;;;;;;;;;;;;;;;;;6210570;23;19919;-90
2022/08/28 03:29:21;;;;;;;;;;;;;;;;;;6206816;23;19920;-90
2022/08/28 03:31:50;;;;;;;;;;;;;;;;;;6210213;23;19920;-90
2022/08/28 03:34:19;;;;;;;;;;;;;;;;;;6208730;23;19990;-91
2022/08/28 03:36:45;;;;;;;;;;;;;;;;;;6234348;23;19920;-90
2022/08/28 03:39:12;;;;;;;;;;;;;;;;;;6210438;23;19969;-90
2022/08/28 03:41:39;;;;;;;;;;;;;;;;;;6205635;23;19984;-90
2022/08/28 03:44:05;;;;;;;;;;;;;;;;;;6236974;23;20213;-90
2022/08/28 03:46:31;;;;;;;;;;;;;;;;;;6207006;23;20041;-90
2022/08/28 03:48:57;;;;;;;;;;;;;;;;;;6234338;23;19986;-89
2022/08/28 03:51:26;;;;;;;;;;;;;;;;;;6207983;23;20327;-90
2022/08/28 03:53:52;;;;;;;;;;;;;;;;;;6209945;23;19919;-90
2022/08/28 03:56:20;;;;;;;;;;;;;;;;;;6206894;23;20544;-90
2022/08/28 03:58:50;;;;;;;;;;;;;;;;;;6210307;23;20692;-90
2022/08/28 04:01:19;;;;;;;;;;;;;;;;;;6210270;23;19916;-89
2022/08/28 04:03:44;;;;;;;;;;;;;;;;;;6211546;23;19915;-89
2022/08/28 04:06:13;;;;;;;;;;;;;;;;;;6211211;23;20237;-89
2022/08/28 04:08:39;;;;;;;;;;;;;;;;;;6231551;23;19919;-90
2022/08/28 04:11:05;;;;;;;;;;;;;;;;;;6209717;23;19920;-89
2022/08/28 04:13:31;;;;;;;;;;;;;;;;;;6205758;23;19925;-90
2022/08/28 04:15:57;;;;;;;;;;;;;;;;;;6236420;23;20000;-90
2022/08/28 04:18:29;;;;;;;;;;;;;;;;;;6206683;23;19977;-90
2022/08/28 04:20:55;;;;;;;;;;;;;;;;;;6234791;23;19916;-90
2022/08/28 04:23:22;;;;;;;;;;;;;;;;;;6230043;23;19999;-90
2022/08/28 04:25:48;;;;;;;;;;;;;;;;;;6207681;23;20019;-89
2022/08/28 04:28:14;;;;;;;;;;;;;;;;;;6208662;23;20328;-90
2022/08/28 04:30:40;;;;;;;;;;;;;;;;;;6229672;23;19920;-90
2022/08/28 04:33:06;;;;;;;;;;;;;;;;;;6227422;23;20339;-90
2022/08/28 04:35:32;;;;;;;;;;;;;;;;;;6204337;23;19920;-89
2022/08/28 04:38:00;;;;;;;;;;;;;;;;;;6208603;23;19946;-89
2022/08/28 04:40:27;;;;;;;;;;;;;;;;;;6230780;23;19955;-89
2022/08/28 04:42:53;;;;;;;;;;;;;;;;;;6207413;23;19923;-89
2022/08/28 04:45:20;;;;;;;;;;;;;;;;;;6207491;23;19920;-90
2022/08/28 04:47:47;;;;;;;;;;;;;;;;;;6232077;23;19926;-89
2022/08/28 04:50:13;;;;;;;;;;;;;;;;;;6209119;23;20255;-89
2022/08/28 04:52:45;;;;;;;;;;;;;;;;;;6229217;23;19923;-90
2022/08/28 04:55:11;;;;;;;;;;;;;;;;;;6207657;23;20336;-90
2022/08/28 04:57:40;;;;;;;;;;;;;;;;;;6205364;23;20506;-90
2022/08/28 05:00:06;;;;;;;;;;;;;;;;;;6233693;23;19920;-90
2022/08/28 05:02:32;;;;;;;;;;;;;;;;;;6204953;23;20390;-90
2022/08/28 05:04:58;;;;;;;;;;;;;;;;;;6207408;23;19924;-90
2022/08/28 05:07:24;;;;;;;;;;;;;;;;;;6207216;23;19994;-90
2022/08/28 05:09:53;;;;;;;;;;;;;;;;;;6232479;23;19923;-89
2022/08/28 05:12:19;;;;;;;;;;;;;;;;;;6229761;23;19922;-90
2022/08/28 05:14:47;;;;;;;;;;;;;;;;;;6208390;23;20009;-91
2022/08/28 05:17:13;;;;;;;;;;;;;;;;;;6206067;23;19920;-90
2022/08/28 05:19:42;;;;;;;;;;;;;;;;;;6203066;23;19920;-90
2022/08/28 05:22:08;;;;;;;;;;;;;;;;;;6207750;23;19998;-90
2022/08/28 05:24:34;;;;;;;;;;;;;;;;;;6205746;23;19962;-90
2022/08/28 05:27:01;;;;;;;;;;;;;;;;;;6209643;23;19977;-90
2022/08/28 05:29:27;;;;;;;;;;;;;;;;;;6206797;23;19976;-90
2022/08/28 05:31:53;;;;;;;;;;;;;;;;;;6209228;23;19915;-90
2022/08/28 05:34:19;;;;;;;;;;;;;;;;;;6210050;22;19942;-90
2022/08/28 05:36:49;;;;;;;;;;;;;;;;;;6209825;22;19990;-90
2022/08/28 05:39:15;;;;;;;;;;;;;;;;;;6208045;22;19995;-89
2022/08/28 05:41:41;;;;;;;;;;;;;;;;;;6208693;22;19915;-90
2022/08/28 05:44:07;;;;;;;;;;;;;;;;;;6212367;22;19994;-90
2022/08/28 05:46:33;;;;;;;;;;;;;;;;;;6234788;22;19923;-89
2022/08/28 05:48:59;;;;;;;;;;;;;;;;;;6212613;22;19919;-90
2022/08/28 05:51:25;;;;;;;;;;;;;;;;;;6234432;22;19915;-90
2022/08/28 05:53:51;;;;;;;;;;;;;;;;;;6213045;22;19919;-90
2022/08/28 05:56:17;;;;;;;;;;;;;;;;;;6212633;22;19968;-90
2022/08/28 05:58:46;;;;;;;;;;;;;;;;;;6211751;22;19927;-90
2022/08/28 06:01:12;;;;;;;;;;;;;;;;;;6237233;22;19919;-89
2022/08/28 06:03:38;;;;;;;;;;;;;;;;;;6211477;22;20112;-89
2022/08/28 06:06:04;;;;;;;;;;;;;;;;;;6213708;22;20366;-90
2022/08/28 06:08:30;;;;;;;;;;;;;;;;;;6211747;22;19923;-89
2022/08/28 06:10:56;;;;;;;;;;;;;;;;;;6215560;22;20387;-89
2022/08/28 06:13:22;;;;;;;;;;;;;;;;;;6209270;22;19963;-89
2022/08/28 06:15:48;;;;;;;;;;;;;;;;;;6211166;22;19986;-90
2022/08/28 06:18:14;;;;;;;;;;;;;;;;;;6212846;22;19922;-90
2022/08/28 06:20:41;;;;;;;;;;;;;;;;;;6234464;22;19992;-90
2022/08/28 06:23:07;;;;;;;;;;;;;;;;;;6235750;22;19920;-79
2022/08/28 06:25:33;;;;;;;;;;;;;;;;;;6236635;22;19946;-79
2022/08/28 06:27:58;;;;;;;;;;;;;;;;;;6260879;22;19927;-80
2022/08/28 06:30:24;;;;;;;;;;;;;;;;;;6209235;22;19959;-79
2022/08/28 06:32:50;;;;;;;;;;;;;;;;;;6185867;22;1805880;-79
2022/08/28 06:35:16;;;;;;;;;;;;;;;;;;6264052;22;19941;-79
2022/08/28 06:37:43;;;;;;;;;;;;;;;;;;6231196;22;19922;-79
2022/08/28 06:40:09;;;;;;;;;;;;;;;;;;6236438;22;20173;-79
2022/08/28 06:42:35;;;;;;;;;;;;;;;;;;6235130;22;19953;-79
2022/08/28 06:45:01;;;;;;;;;;;;;;;;;;6236496;22;19926;-80
2022/08/28 06:47:27;;;;;;;;;;;;;;;;;;6231080;22;19998;-79
2022/08/28 06:49:53;;;;;;;;;;;;;;;;;;6212807;22;19915;-79
2022/08/28 06:52:19;;;;;;;;;;;;;;;;;;6235097;22;19919;-80
2022/08/28 06:54:45;;;;;;;;;;;;;;;;;;6238187;22;19973;-79
2022/08/28 06:57:11;;;;;;;;;;;;;;;;;;6212663;22;19922;-79
2022/08/28 06:59:37;;;;;;;;;;;;;;;;;;6234607;22;19919;-79
2022/08/28 07:02:03;;;;;;;;;;;;;;;;;;6212884;22;19915;-79
2022/08/28 07:04:29;;;;;;;;;;;;;;;;;;6209694;22;19915;-79
2022/08/28 07:06:55;;;;;;;;;;;;;;;;;;6212751;22;19988;-80
2022/08/28 07:09:22;;;;;;;;;;;;;;;;;;6236722;22;19926;-79
2022/08/28 07:11:48;;;;;;;;;;;;;;;;;;6212610;22;20114;-79
2022/08/28 07:14:14;;;;;;;;;;;;;;;;;;6238618;22;19915;-79
2022/08/28 07:16:40;;;;;;;;;;;;;;;;;;6234490;22;19920;-80
2022/08/28 07:19:06;;;;;;;;;;;;;;;;;;6238130;22;19930;-79
2022/08/28 07:21:32;;;;;;;;;;;;;;;;;;6210308;22;19919;-79
2022/08/28 07:23:57;;;;;;;;;;;;;;;;;;6239266;22;19919;-80
2022/08/28 07:26:24;;;;;;;;;;;;;;;;;;6210234;22;19923;-80
2022/08/28 07:28:51;;;;;;;;;;;;;;;;;;6238419;22;19919;-79
2022/08/28 07:31:26;;;;;;;;;;;;;;;;;;6212170;22;19926;-90
2022/08/28 07:33:55;;;;;;;;;;;;;;;;;;6212141;22;20311;-90
2022/08/28 07:36:24;;;;;;;;;;;;;;;;;;6213151;22;19938;-90
2022/08/28 07:38:53;;;;;;;;;;;;;;;;;;6242501;22;19957;-90
2022/08/28 07:41:19;;;;;;;;;;;;;;;;;;6212994;22;20298;-90
2022/08/28 07:46:32;;;;;;;;;;;;;;;;;;6237566;22;19923;-89
2022/08/28 07:49:06;;;;;;;;;;;;;;;;;;6214315;22;20314;-90
2022/08/28 07:51:32;;;;;;;;;;;;;;;;;;6208836;22;19915;-89
2022/08/28 07:53:58;;;;;;;;;;;;;;;;;;6238688;22;19977;-90
2022/08/28 07:56:28;;;;;;;;;;;;;;;;;;6210363;22;19920;-90
2022/08/28 07:58:55;;;;;;;;;;;;;;;;;;6237376;22;19930;-89
2022/08/28 08:01:24;;;;;;;;;;;;;;;;;;6235883;22;19919;-90
2022/08/28 08:03:54;;;;;;;;;;;;;;;;;;6213836;22;19969;-86
2022/08/28 08:06:21;;;;;;;;;;;;;;;;;;6211621;22;19966;-90
2022/08/28 08:08:49;;;;;;;;;;;;;;;;;;6217373;22;20232;-90
2022/08/28 08:11:17;;;;;;;;;;;;;;;;;;6217841;22;19972;-90
2022/08/28 08:13:43;;;;;;;;;;;;;;;;;;6216026;22;19919;-90
2022/08/28 08:16:11;;;;;;;;;;;;;;;;;;6241216;22;20670;-89
2022/08/28 08:18:45;;;;;;;;;;;;;;;;;;6212131;22;19919;-89
2022/08/28 08:21:11;;;;;;;;;;;;;;;;;;6242715;22;19915;-89
2022/08/28 08:23:42;;;;;;;;;;;;;;;;;;6212940;22;19923;-90
2022/08/28 08:26:09;;;;;;;;;;;;;;;;;;6217631;22;19930;-90
2022/08/28 08:28:37;;;;;;;;;;;;;;;;;;6212925;22;19920;-90
2022/08/28 08:31:21;;;;;;;;;;;;;;;;;;6216158;22;19947;-90
2022/08/28 08:33:56;;;;;;;;;;;;;;;;;;6217646;22;20405;-90
2022/08/28 08:36:22;;;;;;;;;;;;;;;;;;6237752;22;19922;-90
2022/08/28 08:38:48;;;;;;;;;;;;;;;;;;6269510;22;19919;-91
2022/08/28 08:41:14;;;;;;;;;;;;;;;;;;6218314;22;20018;-91
2022/08/28 08:43:40;;;;;;;;;;;;;;;;;;6211669;22;19998;-89
2022/08/28 08:46:06;;;;;;;;;;;;;;;;;;6240713;22;19922;-91
2022/08/28 08:48:32;;;;;;;;;;;;;;;;;;6210940;22;20002;-90
2022/08/28 08:50:58;;;;;;;;;;;;;;;;;;6214987;22;19919;-91
2022/08/28 08:53:24;;;;;;;;;;;;;;;;;;6233927;22;19919;-91
2022/08/28 08:55:51;;;;;;;;;;;;;;;;;;6235325;22;20013;-90
2022/08/28 08:58:17;;;;;;;;;;;;;;;;;;6239792;22;19926;-91
2022/08/28 09:00:45;;;;;;;;;;;;;;;;;;6240730;22;19966;-91
2022/08/28 09:03:11;;;;;;;;;;;;;;;;;;6216002;22;19950;-91
2022/08/28 09:05:37;;;;;;;;;;;;;;;;;;6213964;22;19919;-89
2022/08/28 09:08:06;;;;;;;;;;;;;;;;;;6217171;22;19923;-91
2022/08/28 09:10:49;;;;;;;;;;;;;;;;;;6213299;22;20354;-91
2022/08/28 09:13:21;;;;;;;;;;;;;;;;;;6215042;22;19919;-91
2022/08/28 09:15:48;;;;;;;;;;;;;;;;;;6215388;22;20379;-90
2022/08/28 09:18:31;;;;;;;;;;;;;;;;;;6209462;22;20040;-91
2022/08/28 09:21:00;;;;;;;;;;;;;;;;;;6215588;22;19919;-90
2022/08/28 09:23:31;;;;;;;;;;;;;;;;;;6210867;22;19919;-92
2022/08/28 09:26:08;;;;;;;;;;;;;;;;;;6236947;22;19919;-90
2022/08/28 09:28:40;;;;;;;;;;;;;;;;;;6234717;22;20408;-90
2022/08/28 09:31:12;;;;;;;;;;;;;;;;;;6214704;22;19951;-91
2022/08/28 09:33:38;;;;;;;;;;;;;;;;;;6206367;23;19928;-90
2022/08/28 09:36:04;;;;;;;;;;;;;;;;;;6209592;23;19920;-91
2022/08/28 09:38:33;;;;;;;;;;;;;;;;;;6206824;23;20342;-91
2022/08/28 09:43:49;;;;;;;;;;;;;;;;;;6236472;23;19920;-90
2022/08/28 09:46:24;;;;;;;;;;;;;;;;;;6214971;23;19919;-92
2022/08/28 09:48:51;;;;;;;;;;;;;;;;;;6212530;23;20389;-95
2022/08/28 09:51:25;;;;;;;;;;;;;;;;;;6208689;23;19916;-92
2022/08/28 09:53:52;;;;;;;;;;;;;;;;;;6212520;23;20247;-92
2022/08/28 09:56:18;;;;;;;;;;;;;;;;;;6209145;23;19923;-93
2022/08/28 09:58:49;;;;;;;;;;;;;;;;;;6210696;23;19915;-93
2022/08/28 10:01:15;;;;;;;;;;;;;;;;;;6214067;23;19962;-93
2022/08/28 10:03:53;;;;;;;;;;;;;;;;;;6213987;23;20004;-94
2022/08/28 10:06:31;;;;;;;;;;;;;;;;;;6213718;23;19923;-92
2022/08/28 10:09:03;;;;;;;;;;;;;;;;;;6235268;23;19920;-93
2022/08/28 10:11:29;;;;;;;;;;;;;;;;;;6230316;23;20355;-81
2022/08/28 10:13:55;;;;;;;;;;;;;;;;;;6205846;23;19919;-80
2022/08/28 10:16:21;;;;;;;;;;;;;;;;;;6206509;23;20328;-80
2022/08/28 10:18:47;;;;;;;;;;;;;;;;;;6208540;23;19919;-80
2022/08/28 10:21:13;;;;;;;;;;;;;;;;;;6235216;23;20359;-80
2022/08/28 10:23:39;;;;;;;;;;;;;;;;;;6233110;23;20339;-80
2022/08/28 10:26:05;;;;;;;;;;;;;;;;;;6210766;23;19919;-80
2022/08/28 10:28:31;;;;;;;;;;;;;;;;;;6235361;23;20014;-80
2022/08/28 10:30:57;;;;;;;;;;;;;;;;;;6234591;23;19919;-80
2022/08/28 10:33:23;;;;;;;;;;;;;;;;;;6231687;23;19924;-80
2022/08/28 10:35:49;;;;;;;;;;;;;;;;;;6232694;23;19915;-80
2022/08/28 10:38:15;;;;;;;;;;;;;;;;;;6235246;23;19954;-80
2022/08/28 10:40:41;;;;;;;;;;;;;;;;;;6231008;23;19920;-80
2022/08/28 10:43:07;;;;;;;;;;;;;;;;;;6234919;23;20287;-80
2022/08/28 10:45:36;;;;;;;;;;;;;;;;;;6231744;23;19962;-80
2022/08/28 10:48:02;;;;;;;;;;;;;;;;;;6235016;23;19937;-80
2022/08/28 10:50:28;;;;;;;;;;;;;;;;;;6231552;23;20317;-80
2022/08/28 10:52:54;;;;;;;;;;;;;;;;;;6207070;23;20308;-80
2022/08/28 10:55:20;;;;;;;;;;;;;;;;;;6229425;23;19920;-81
2022/08/28 10:57:47;;;;;;;;;;;;;;;;;;6202726;23;20189;-81
2022/08/28 11:00:13;;;;;;;;;;;;;;;;;;6222530;23;19920;-80
2022/08/28 11:02:39;;;;;;;;;;;;;;;;;;6222376;23;20332;-79
2022/08/28 11:05:05;;;;;;;;;;;;;;;;;;6233716;23;20299;-79
2022/08/28 11:07:31;;;;;;;;;;;;;;;;;;6232837;23;20346;-79
2022/08/28 11:09:57;;;;;;;;;;;;;;;;;;6230962;23;19926;-79
2022/08/28 11:12:23;;;;;;;;;;;;;;;;;;6202606;23;19945;-79
2022/08/28 11:14:49;;;;;;;;;;;;;;;;;;6231286;23;19920;-78
2022/08/28 11:17:15;;;;;;;;;;;;;;;;;;6232236;23;19931;-79
2022/08/28 11:19:41;;;;;;;;;;;;;;;;;;6227295;23;20195;-79
2022/08/28 11:22:07;;;;;;;;;;;;;;;;;;6203663;23;19920;-81
2022/08/28 11:24:33;;;;;;;;;;;;;;;;;;6202533;23;19919;-79
2022/08/28 11:26:59;;;;;;;;;;;;;;;;;;6206079;23;19959;-79
2022/08/28 11:29:25;;;;;;;;;;;;;;;;;;6203767;23;20608;-79
2022/08/28 11:31:53;;;;;;;;;;;;;;;;;;6230296;23;20322;-79
2022/08/28 11:34:20;;;;;;;;;;;;;;;;;;6225985;23;19946;-81
2022/08/28 11:36:46;;;;;;;;;;;;;;;;;;6229126;23;19934;-80
2022/08/28 11:39:12;;;;;;;;;;;;;;;;;;6232437;23;20643;-79
2022/08/28 11:41:38;;;;;;;;;;;;;;;;;;6227441;23;19924;-79
2022/08/28 11:44:04;;;;;;;;;;;;;;;;;;6229426;23;19915;-79
2022/08/28 11:46:31;;;;;;;;;;;;;;;;;;6226265;23;20225;-78
2022/08/28 11:48:57;;;;;;;;;;;;;;;;;;6204703;23;19920;-79
2022/08/28 11:51:23;;;;;;;;;;;;;;;;;;6201805;23;19927;-79
2022/08/28 11:53:49;;;;;;;;;;;;;;;;;;6229615;23;20336;-79
2022/08/28 11:56:15;;;;;;;;;;;;;;;;;;6229700;23;19926;-79
2022/08/28 11:58:41;;;;;;;;;;;;;;;;;;6227059;23;20206;-79
2022/08/28 12:01:07;;;;;;;;;;;;;;;;;;6203910;23;19920;-79
2022/08/28 12:03:33;;;;;;;;;;;;;;;;;;6228200;23;19919;-78
2022/08/28 12:05:59;;;;;;;;;;;;;;;;;;6229186;23;19942;-79
2022/08/28 12:08:25;;;;;;;;;;;;;;;;;;6226505;23;19928;-79
2022/08/28 12:10:51;;;;;;;;;;;;;;;;;;6229276;23;19973;-79
2022/08/28 12:13:17;;;;;;;;;;;;;;;;;;6230930;23;19973;-80
2022/08/28 12:15:43;;;;;;;;;;;;;;;;;;6202209;23;19924;-79
2022/08/28 12:18:09;;;;;;;;;;;;;;;;;;6229158;23;19935;-79
2022/08/28 12:20:34;;;;;;;;;;;;;;;;;;6229533;23;19915;-79
2022/08/28 12:23:00;;;;;;;;;;;;;;;;;;6232155;23;19947;-79
2022/08/28 12:25:26;;;;;;;;;;;;;;;;;;6226710;23;19926;-80
2022/08/28 12:27:52;;;;;;;;;;;;;;;;;;6233541;23;20267;-79
2022/08/28 12:30:18;;;;;;;;;;;;;;;;;;6229743;23;20277;-79
2022/08/28 12:32:44;;;;;;;;;;;;;;;;;;6233231;23;19986;-79
2022/08/28 12:35:10;;;;;;;;;;;;;;;;;;6232628;23;19931;-79
2022/08/28 12:37:36;;;;;;;;;;;;;;;;;;6203836;23;19919;-79
2022/08/28 12:40:04;;;;;;;;;;;;;;;;;;6232714;23;19973;-79
2022/08/28 12:42:30;;;;;;;;;;;;;;;;;;6228707;23;20390;-79
2022/08/28 12:44:56;;;;;;;;;;;;;;;;;;6234040;23;20289;-80
2022/08/28 12:47:24;;;;;;;;;;;;;;;;;;6229183;23;19959;-79
2022/08/28 12:49:50;;;;;;;;;;;;;;;;;;6231981;23;20055;-78
2022/08/28 12:52:16;;;;;;;;;;;;;;;;;;6230351;23;20010;-79
2022/08/28 12:54:42;;;;;;;;;;;;;;;;;;6224719;23;20364;-79
2022/08/28 12:57:08;;;;;;;;;;;;;;;;;;6227900;23;19931;-79
2022/08/28 12:59:34;;;;;;;;;;;;;;;;;;6202147;23;20394;-79
2022/08/28 13:02:00;;;;;;;;;;;;;;;;;;6228967;23;19971;-79
2022/08/28 13:04:26;;;;;;;;;;;;;;;;;;6225728;23;19919;-79
2022/08/28 13:06:52;;;;;;;;;;;;;;;;;;6227013;23;20258;-79
2022/08/28 13:09:18;;;;;;;;;;;;;;;;;;6225591;23;20044;-79
2022/08/28 13:11:44;;;;;;;;;;;;;;;;;;6225502;23;19920;-79
2022/08/28 13:14:10;;;;;;;;;;;;;;;;;;6228946;23;19915;-79
2022/08/28 13:16:36;;;;;;;;;;;;;;;;;;6227058;23;19954;-81
2022/08/28 13:19:03;;;;;;;;;;;;;;;;;;6231020;23;19926;-79
2022/08/28 13:21:31;;;;;;;;;;;;;;;;;;6230347;23;20188;-79
2022/08/28 13:23:59;;;;;;;;;;;;;;;;;;6232463;23;19947;-79
2022/08/28 13:26:25;;;;;;;;;;;;;;;;;;6228270;23;20502;-79
2022/08/28 13:28:51;;;;;;;;;;;;;;;;;;6234215;23;20017;-79
2022/08/28 13:31:20;;;;;;;;;;;;;;;;;;6232548;23;20005;-78
2022/08/28 13:33:46;;;;;;;;;;;;;;;;;;6227972;23;19923;-79
2022/08/28 13:36:11;;;;;;;;;;;;;;;;;;6230193;23;20587;-79
2022/08/28 13:38:37;;;;;;;;;;;;;;;;;;6227048;23;19919;-79
2022/08/28 13:41:04;;;;;;;;;;;;;;;;;;6229551;23;20082;-79
2022/08/28 13:43:30;;;;;;;;;;;;;;;;;;6225739;23;19939;-79
2022/08/28 13:45:56;;;;;;;;;;;;;;;;;;6229077;23;20321;-78
2022/08/28 13:48:22;;;;;;;;;;;;;;;;;;6227461;23;19954;-79
2022/08/28 13:50:48;;;;;;;;;;;;;;;;;;6231118;23;20572;-79
2022/08/28 13:53:14;;;;;;;;;;;;;;;;;;6207153;23;20289;-79
2022/08/28 13:55:40;;;;;;;;;;;;;;;;;;6230435;23;19920;-79
2022/08/28 13:58:06;;;;;;;;;;;;;;;;;;6232673;23;19927;-79
2022/08/28 14:00:32;;;;;;;;;;;;;;;;;;6230744;23;20240;-79
2022/08/28 14:05:43;;;;;;;;;;;;;;;;;;6228621;23;19916;-79
2022/08/28 14:08:09;;;;;;;;;;;;;;;;;;6227424;23;19920;-79
2022/08/28 14:10:35;;;;;;;;;;;;;;;;;;6229898;23;19920;-79
2022/08/28 14:13:01;;;;;;;;;;;;;;;;;;6232795;23;19923;-79
2022/08/28 14:15:27;;;;;;;;;;;;;;;;;;6229146;23;20002;-79
2022/08/28 14:17:53;;;;;;;;;;;;;;;;;;6226296;23;19928;-79
2022/08/28 14:20:18;;;;;;;;;;;;;;;;;;6228771;23;19974;-79
2022/08/28 14:22:44;;;;;;;;;;;;;;;;;;6229178;23;19927;-79
2022/08/28 14:25:10;;;;;;;;;;;;;;;;;;6228615;23;19931;-79
2022/08/28 14:27:36;;;;;;;;;;;;;;;;;;6226337;23;19923;-79
2022/08/28 14:30:02;;;;;;;;;;;;;;;;;;6230372;23;19919;-79
2022/08/28 14:32:28;;;;;;;;;;;;;;;;;;6226441;23;19923;-79
2022/08/28 14:34:54;;;;;;;;;;;;;;;;;;6255115;22;19994;-78
2022/08/28 14:37:20;;;;;;;;;;;;;;;;;;6229429;22;19919;-79
2022/08/28 14:39:48;;;;;;;;;;;;;;;;;;6261500;22;20354;-79
2022/08/28 14:42:14;;;;;;;;;;;;;;;;;;6207965;22;19958;-79
2022/08/28 14:44:40;;;;;;;;;;;;;;;;;;6204220;22;19919;-79
2022/08/28 14:47:06;;;;;;;;;;;;;;;;;;6207400;22;19977;-79
2022/08/28 14:49:32;;;;;;;;;;;;;;;;;;6230440;22;19925;-79
2022/08/28 14:51:58;;;;;;;;;;;;;;;;;;6206773;22;19942;-80
2022/08/28 14:54:24;;;;;;;;;;;;;;;;;;6206193;22;19968;-80
2022/08/28 14:56:52;;;;;;;;;;;;;;;;;;6204415;22;20017;-80
2022/08/28 14:59:19;;;;;;;;;;;;;;;;;;6257375;22;20260;-80
2022/08/28 15:01:45;;;;;;;;;;;;;;;;;;6259210;22;19990;-80
2022/08/28 15:04:11;;;;;;;;;;;;;;;;;;6234142;22;19951;-80
2022/08/28 15:06:37;;;;;;;;;;;;;;;;;;6230328;22;19926;-80
2022/08/28 15:09:03;;;;;;;;;;;;;;;;;;6258665;22;19938;-80
2022/08/28 15:11:29;;;;;;;;;;;;;;;;;;6230261;22;19919;-80
2022/08/28 15:13:56;;;;;;;;;;;;;;;;;;6260317;22;19923;-80
2022/08/28 15:16:25;;;;;;;;;;;;;;;;;;6223046;22;19919;-80
2022/08/28 15:18:51;;;;;;;;;;;;;;;;;;6255986;22;19919;-80
2022/08/28 15:21:17;;;;;;;;;;;;;;;;;;6260592;22;19923;-80
2022/08/28 15:23:43;;;;;;;;;;;;;;;;;;6232282;22;19920;-80
2022/08/28 15:26:13;;;;;;;;;;;;;;;;;;6259715;22;19991;-80
2022/08/28 15:28:40;;;;;;;;;;;;;;;;;;6231550;22;19926;-81
2022/08/28 15:31:06;;;;;;;;;;;;;;;;;;6258889;22;19919;-80
2022/08/28 15:33:32;;;;;;;;;;;;;;;;;;6255633;22;19923;-81
2022/08/28 15:35:58;;;;;;;;;;;;;;;;;;6258411;22;19950;-80
2022/08/28 15:38:24;;;;;;;;;;;;;;;;;;6257769;22;19915;-80
2022/08/28 15:43:35;;;;;;;;;;;;;;;;;;6230692;22;20244;-80
2022/08/28 15:46:00;;;;;;;;;;;;;;;;;;6231468;22;19920;-80
2022/08/28 15:48:26;;;;;;;;;;;;;;;;;;6204780;22;20497;-80
2022/08/28 15:50:52;;;;;;;;;;;;;;;;;;6204645;22;20001;-81
2022/08/28 15:53:18;;;;;;;;;;;;;;;;;;6230340;22;19961;-80
2022/08/28 15:55:44;;;;;;;;;;;;;;;;;;6208478;22;19969;-80
2022/08/28 15:58:11;;;;;;;;;;;;;;;;;;6208082;22;19990;-81
2022/08/28 16:00:37;;;;;;;;;;;;;;;;;;6231759;22;19919;-80
2022/08/28 16:03:03;;;;;;;;;;;;;;;;;;6234591;22;20227;-80
2022/08/28 16:05:29;;;;;;;;;;;;;;;;;;6204511;22;20007;-80
2022/08/28 16:07:55;;;;;;;;;;;;;;;;;;6233369;22;19930;-80
2022/08/28 16:10:21;;;;;;;;;;;;;;;;;;6228810;22;19934;-80
2022/08/28 16:12:47;;;;;;;;;;;;;;;;;;6232117;22;19919;-80
2022/08/28 16:15:13;;;;;;;;;;;;;;;;;;6207843;22;19919;-81
2022/08/28 16:17:39;;;;;;;;;;;;;;;;;;6204694;22;19923;-81
2022/08/28 16:20:05;;;;;;;;;;;;;;;;;;6207547;22;19919;-81
2022/08/28 16:22:31;;;;;;;;;;;;;;;;;;6205888;22;19941;-80
2022/08/28 16:24:57;;;;;;;;;;;;;;;;;;6234431;22;19946;-80
2022/08/28 16:27:23;;;;;;;;;;;;;;;;;;6206935;22;19930;-81
2022/08/28 16:29:49;;;;;;;;;;;;;;;;;;6232309;22;20300;-80
2022/08/28 16:32:15;;;;;;;;;;;;;;;;;;6233511;22;20259;-80
2022/08/28 16:38:08;;;;;;;;;;;;;;;;;;6245946;22;20896;-87
2022/08/28 16:40:35;;;;;;;;;;;;;;;;;;6262741;22;19966;-89
2022/08/28 16:43:01;;;;;;;;;;;;;;;;;;6261974;22;19964;-88
2022/08/28 16:45:28;;;;;;;;;;;;;;;;;;6263884;22;19919;-88
2022/08/28 16:47:54;;;;;;;;;;;;;;;;;;6266802;22;19914;-88
2022/08/28 16:50:20;;;;;;;;;;;;;;;;;;6263516;22;19927;-88
2022/08/28 16:52:46;;;;;;;;;;;;;;;;;;6264927;22;19918;-88
2022/08/28 16:55:12;;;;;;;;;;;;;;;;;;6265707;22;19930;-88
2022/08/28 16:57:38;;;;;;;;;;;;;;;;;;6259989;22;20885;-88
2022/08/28 17:00:04;;;;;;;;;;;;;;;;;;6265100;22;19994;-88
2022/08/28 17:02:32;;;;;;;;;;;;;;;;;;6256334;22;19929;-88
2022/08/28 17:05:00;;;;;;;;;;;;;;;;;;6241489;22;19925;-88